createdAt,value
2023-11-27T00:01:37.261Z,100655.41
2023-11-27T00:04:03.845Z,100664.97
2023-11-27T00:06:30.404Z,100664.06
2023-11-27T00:08:56.808Z,100664.13
2023-11-27T00:11:23.148Z,100663.25
2023-11-27T00:13:49.488Z,100658.13
2023-11-27T00:16:16.485Z,100661.63
2023-11-27T00:18:47.799Z,100655.66
2023-11-27T00:21:14.788Z,100658.25
2023-11-27T00:23:41.217Z,100654.81
2023-11-27T00:26:07.975Z,100654.81
2023-11-27T00:28:34.878Z,100649.66
2023-11-27T00:31:01.337Z,100647.06
2023-11-27T00:33:27.787Z,100642.75
2023-11-27T00:35:54.128Z,100639.25
2023-11-27T00:38:20.600Z,100634.03
2023-11-27T00:40:47.620Z,100623.69
2023-11-27T00:43:14.467Z,100623.56
2023-11-27T00:45:40.916Z,100621.94
2023-11-27T00:48:07.371Z,100622.72
2023-11-27T00:50:33.747Z,100615.78
2023-11-27T00:53:00.158Z,100613.13
2023-11-27T00:55:26.532Z,100613.13
2023-11-27T00:57:52.901Z,100612.19
2023-11-27T01:00:19.463Z,100612.97
2023-11-27T01:02:46.653Z,100600.75
2023-11-27T01:05:15.352Z,100600.75
2023-11-27T01:07:42.801Z,100594.66
2023-11-27T01:10:09.849Z,100594.75
2023-11-27T01:12:39.571Z,100592.22
2023-11-27T01:15:07.506Z,100594.75
2023-11-27T01:17:33.915Z,100589.59
2023-11-27T01:20:00.278Z,100597.34
2023-11-27T01:22:26.627Z,100589.59
2023-11-27T01:24:53.034Z,100591.31
2023-11-27T01:27:19.414Z,100587.06
2023-11-27T01:29:45.786Z,100586.16
2023-11-27T01:32:12.138Z,100585.25
2023-11-27T01:34:38.508Z,100584.47
2023-11-27T01:37:05.134Z,100581.88
2023-11-27T01:39:31.488Z,100581.00
2023-11-27T01:41:57.829Z,100577.63
2023-11-27T01:44:24.184Z,100568.97
2023-11-27T01:46:50.568Z,100575.03
2023-11-27T01:49:19.027Z,100568.91
2023-11-27T01:51:46.204Z,100572.41
2023-11-27T01:54:13.836Z,100569.03
2023-11-27T01:56:43.389Z,100572.53
2023-11-27T01:59:11.304Z,100568.19
2023-11-27T02:01:38.296Z,100569.94
2023-11-27T02:04:04.833Z,100560.31
2023-11-27T02:06:31.246Z,100557.78
2023-11-27T02:08:57.669Z,100555.19
2023-11-27T02:11:25.854Z,100556.03
2023-11-27T02:13:52.261Z,100549.06
2023-11-27T02:16:18.916Z,100547.28
2023-11-27T02:18:45.847Z,100543.78
2023-11-27T02:21:12.687Z,100537.63
2023-11-27T02:23:39.072Z,100537.78
2023-11-27T02:26:05.673Z,100535.94
2023-11-27T02:28:32.026Z,100542.09
2023-11-27T02:30:58.604Z,100535.94
2023-11-27T02:33:26.593Z,100538.59
2023-11-27T02:35:53.384Z,100543.00
2023-11-27T02:38:20.134Z,100532.59
2023-11-27T02:40:46.793Z,100535.19
2023-11-27T02:43:13.194Z,100542.16
2023-11-27T02:45:39.656Z,100538.75
2023-11-27T02:48:07.889Z,100531.84
2023-11-27T02:50:34.307Z,100524.03
2023-11-27T02:53:00.654Z,100530.16
2023-11-27T02:55:28.302Z,100525.69
2023-11-27T02:57:54.721Z,100533.53
2023-11-27T03:00:22.433Z,100534.28
2023-11-27T03:02:49.021Z,100532.59
2023-11-27T03:05:15.610Z,100523.75
2023-11-27T03:07:42.050Z,100524.63
2023-11-27T03:10:10.358Z,100521.09
2023-11-27T03:12:37.030Z,100512.38
2023-11-27T03:15:03.519Z,100510.59
2023-11-27T03:17:29.877Z,100507.00
2023-11-27T03:19:56.232Z,100507.84
2023-11-27T03:22:24.660Z,100507.91
2023-11-27T03:24:51.131Z,100506.16
2023-11-27T03:27:17.508Z,100501.81
2023-11-27T03:29:43.934Z,100494.88
2023-11-27T03:32:11.118Z,100492.22
2023-11-27T03:34:37.599Z,100486.97
2023-11-27T03:37:04.058Z,100487.84
2023-11-27T03:39:30.421Z,100487.94
2023-11-27T03:41:56.784Z,100484.50
2023-11-27T03:44:23.125Z,100490.72
2023-11-27T03:46:49.673Z,100482.06
2023-11-27T03:49:16.088Z,100480.34
2023-11-27T03:51:42.456Z,100489.13
2023-11-27T03:54:12.362Z,100494.44
2023-11-27T03:56:39.021Z,100484.91
2023-11-27T03:59:05.411Z,100493.59
2023-11-27T04:01:31.875Z,100497.13
2023-11-27T04:03:58.388Z,100497.16
2023-11-27T04:06:33.093Z,100491.91
2023-11-27T04:09:00.060Z,100486.81
2023-11-27T04:11:29.472Z,100487.75
2023-11-27T04:13:56.222Z,100489.53
2023-11-27T04:16:23.390Z,100483.47
2023-11-27T04:18:49.919Z,100476.56
2023-11-27T04:21:18.329Z,100478.38
2023-11-27T04:23:48.161Z,100473.09
2023-11-27T04:26:15.725Z,100469.72
2023-11-27T04:28:42.239Z,100468.84
2023-11-27T04:31:09.436Z,100466.25
2023-11-27T04:33:37.017Z,100463.66
2023-11-27T04:36:03.557Z,100467.97
2023-11-27T04:38:30.117Z,100456.69
2023-11-27T04:40:56.529Z,100458.47
2023-11-27T04:43:26.792Z,100455.91
2023-11-27T04:45:53.423Z,100453.25
2023-11-27T04:48:20.954Z,100452.47
2023-11-27T04:50:47.317Z,100445.53
2023-11-27T04:53:14.590Z,100444.66
2023-11-27T04:55:41.409Z,100442.94
2023-11-27T04:58:08.614Z,100445.63
2023-11-27T05:00:34.995Z,100443.84
2023-11-27T05:03:01.836Z,100442.03
2023-11-27T05:05:28.261Z,100438.63
2023-11-27T05:07:55.336Z,100435.22
2023-11-27T05:10:21.756Z,100432.53
2023-11-27T05:12:48.529Z,100431.78
2023-11-27T05:15:14.911Z,100428.34
2023-11-27T05:17:41.518Z,100432.66
2023-11-27T05:20:10.361Z,100437.88
2023-11-27T05:22:36.733Z,100437.84
2023-11-27T05:25:03.192Z,100430.13
2023-11-27T05:27:29.572Z,100436.19
2023-11-27T05:29:56.056Z,100437.09
2023-11-27T05:32:23.165Z,100443.13
2023-11-27T05:34:49.664Z,100447.44
2023-11-27T05:37:16.087Z,100439.63
2023-11-27T05:39:42.697Z,100440.47
2023-11-27T05:42:12.994Z,100433.53
2023-11-27T05:44:40.023Z,100424.91
2023-11-27T05:47:06.609Z,100430.13
2023-11-27T05:49:33.265Z,100423.16
2023-11-27T05:51:59.743Z,100422.31
2023-11-27T05:54:26.148Z,100424.88
2023-11-27T05:56:52.574Z,100431.78
2023-11-27T05:59:19.964Z,100434.34
2023-11-27T06:01:46.729Z,100442.09
2023-11-27T06:04:13.191Z,100440.38
2023-11-27T06:06:39.960Z,100441.22
2023-11-27T06:09:07.901Z,100442.09
2023-11-27T06:11:34.285Z,100447.25
2023-11-27T06:14:00.646Z,100444.66
2023-11-27T06:16:27.150Z,100442.88
2023-11-27T06:18:53.928Z,100446.38
2023-11-27T06:21:20.326Z,100448.94
2023-11-27T06:23:46.679Z,100455.03
2023-11-27T06:26:17.889Z,100448.88
2023-11-27T06:28:45.040Z,100447.19
2023-11-27T06:31:11.682Z,100437.63
2023-11-27T06:33:38.175Z,100451.44
2023-11-27T06:36:04.861Z,100434.84
2023-11-27T06:38:31.237Z,100434.84
2023-11-27T06:40:57.715Z,100442.56
2023-11-27T06:43:25.371Z,100433.97
2023-11-27T06:45:53.416Z,100432.16
2023-11-27T06:48:20.630Z,100429.50
2023-11-27T06:50:47.302Z,100426.88
2023-11-27T06:53:13.905Z,100425.19
2023-11-27T06:55:40.253Z,100425.13
2023-11-27T06:58:06.635Z,100419.03
2023-11-27T07:00:33.075Z,100414.78
2023-11-27T07:02:59.537Z,100415.63
2023-11-27T07:05:25.998Z,100415.63
2023-11-27T07:07:52.392Z,100415.63
2023-11-27T07:10:18.809Z,100408.50
2023-11-27T07:12:45.183Z,100411.00
2023-11-27T07:15:11.752Z,100416.19
2023-11-27T07:17:38.743Z,100410.09
2023-11-27T07:20:06.749Z,100423.16
2023-11-27T07:22:33.317Z,100417.28
2023-11-27T07:24:59.888Z,100418.22
2023-11-27T07:27:28.109Z,100423.44
2023-11-27T07:29:54.969Z,100413.00
2023-11-27T07:32:21.540Z,100420.91
2023-11-27T07:34:47.929Z,100421.88
2023-11-27T07:37:14.360Z,100425.41
2023-11-27T07:39:41.064Z,100421.09
2023-11-27T07:42:07.893Z,100418.59
2023-11-27T07:44:34.308Z,100422.00
2023-11-27T07:47:00.760Z,100421.19
2023-11-27T07:49:27.151Z,100424.72
2023-11-27T07:51:59.009Z,100430.06
2023-11-27T07:54:26.044Z,100430.19
2023-11-27T07:56:54.185Z,100431.88
2023-11-27T07:59:20.717Z,100421.56
2023-11-27T08:01:47.430Z,100422.47
2023-11-27T08:04:14.047Z,100426.84
2023-11-27T08:06:40.565Z,100426.94
2023-11-27T08:09:08.528Z,100426.03
2023-11-27T08:11:35.459Z,100425.25
2023-11-27T08:14:01.999Z,100433.94
2023-11-27T08:16:28.582Z,100435.75
2023-11-27T08:18:55.104Z,100425.44
2023-11-27T08:21:21.530Z,100429.81
2023-11-27T08:23:48.819Z,100428.09
2023-11-27T08:26:15.931Z,100423.78
2023-11-27T08:28:42.299Z,100420.38
2023-11-27T08:31:08.837Z,100423.78
2023-11-27T08:33:35.283Z,100413.56
2023-11-27T08:36:05.217Z,100410.03
2023-11-27T08:38:34.637Z,100402.19
2023-11-27T08:41:00.999Z,100410.22
2023-11-27T08:43:28.317Z,100416.28
2023-11-27T08:45:55.195Z,100416.31
2023-11-27T08:48:21.622Z,100408.56
2023-11-27T08:50:48.353Z,100406.91
2023-11-27T08:53:14.847Z,100408.66
2023-11-27T08:55:41.463Z,100406.09
2023-11-27T08:58:08.604Z,100404.41
2023-11-27T09:00:36.196Z,100406.16
2023-11-27T09:03:04.170Z,100413.97
2023-11-27T09:05:34.709Z,100398.19
2023-11-27T09:08:06.183Z,100397.56
2023-11-27T09:10:33.626Z,100392.31
2023-11-27T09:13:00.274Z,100400.09
2023-11-27T09:15:26.757Z,100398.38
2023-11-27T09:17:53.326Z,100395.88
2023-11-27T09:20:19.781Z,100399.41
2023-11-27T09:22:46.206Z,100401.09
2023-11-27T09:25:14.257Z,100394.16
2023-11-27T09:27:41.129Z,100396.72
2023-11-27T09:30:08.610Z,100410.75
2023-11-27T09:32:36.272Z,100405.69
2023-11-27T09:35:10.214Z,100403.94
2023-11-27T09:37:37.796Z,100404.88
2023-11-27T09:40:06.375Z,100404.03
2023-11-27T09:42:46.467Z,100406.69
2023-11-27T09:45:17.480Z,100406.69
2023-11-27T09:47:45.155Z,100410.91
2023-11-27T09:50:14.082Z,100400.47
2023-11-27T09:52:50.526Z,100397.06
2023-11-27T09:55:18.996Z,100395.31
2023-11-27T09:57:47.319Z,100384.06
2023-11-27T10:00:15.514Z,100374.47
2023-11-27T10:02:42.258Z,100372.75
2023-11-27T10:05:10.015Z,100372.00
2023-11-27T10:07:36.916Z,100375.44
2023-11-27T10:10:06.459Z,100368.66
2023-11-27T10:12:34.288Z,100363.28
2023-11-27T10:15:03.584Z,100360.75
2023-11-27T10:17:30.448Z,100359.00
2023-11-27T10:19:59.894Z,100345.03
2023-11-27T10:22:30.848Z,100350.28
2023-11-27T10:25:00.191Z,100346.06
2023-11-27T10:27:26.773Z,100347.03
2023-11-27T10:29:54.226Z,100346.25
2023-11-27T10:32:24.265Z,100351.56
2023-11-27T10:34:50.900Z,100352.34
2023-11-27T10:37:17.695Z,100346.25
2023-11-27T10:39:44.139Z,100355.81
2023-11-27T10:42:12.278Z,100347.91
2023-11-27T10:44:39.431Z,100354.91
2023-11-27T10:47:09.870Z,100345.56
2023-11-27T10:49:40.987Z,100349.88
2023-11-27T10:52:10.431Z,100342.06
2023-11-27T10:54:40.418Z,100337.75
2023-11-27T10:57:08.310Z,100333.38
2023-11-27T10:59:37.660Z,100334.06
2023-11-27T11:02:05.979Z,100331.47
2023-11-27T11:04:54.264Z,100332.41
2023-11-27T11:07:23.444Z,100330.78
2023-11-27T11:09:50.121Z,100322.06
2023-11-27T11:12:20.025Z,100312.34
2023-11-27T11:14:46.441Z,100318.41
2023-11-27T11:17:20.584Z,100313.16
2023-11-27T11:20:14.733Z,100313.03
2023-11-27T11:23:02.414Z,100317.38
2023-11-27T11:25:47.786Z,100313.03
2023-11-27T11:28:17.076Z,100308.78
2023-11-27T11:30:43.536Z,100307.94
2023-11-27T11:33:19.640Z,100307.94
2023-11-27T11:35:46.839Z,100301.91
2023-11-27T11:38:17.652Z,100300.97
2023-11-27T11:40:48.702Z,100297.56
2023-11-27T11:43:19.055Z,100294.19
2023-11-27T11:45:47.245Z,100285.47
2023-11-27T11:48:15.797Z,100283.75
2023-11-27T11:50:42.960Z,100284.75
2023-11-27T11:53:15.462Z,100267.34
2023-11-27T11:55:42.267Z,100269.06
2023-11-27T11:58:09.718Z,100257.84
2023-11-27T12:00:44.599Z,100262.13
2023-11-27T12:03:20.077Z,100262.22
2023-11-27T12:05:51.562Z,100260.59
2023-11-27T12:08:23.245Z,100257.03
2023-11-27T12:10:52.877Z,100258.78
2023-11-27T12:13:24.673Z,100262.34
2023-11-27T12:15:52.375Z,100251.88
2023-11-27T12:18:21.027Z,100245.75
2023-11-27T12:20:51.177Z,100244.16
2023-11-27T12:23:18.955Z,100238.06
2023-11-27T12:25:45.875Z,100238.00
2023-11-27T12:28:12.976Z,100227.50
2023-11-27T12:30:39.891Z,100227.50
2023-11-27T12:33:07.850Z,100239.72
2023-11-27T12:35:34.482Z,100235.44
2023-11-27T12:38:06.017Z,100226.81
2023-11-27T12:40:38.495Z,100226.75
2023-11-27T12:43:05.543Z,100228.50
2023-11-27T12:45:32.402Z,100230.31
2023-11-27T12:47:59.909Z,100220.63
2023-11-27T12:50:30.073Z,100224.13
2023-11-27T12:53:10.071Z,100216.25
2023-11-27T12:55:50.125Z,100231.13
2023-11-27T12:58:22.482Z,100226.75
2023-11-27T13:00:49.725Z,100218.97
2023-11-27T13:03:20.356Z,100218.16
2023-11-27T13:05:56.085Z,100217.22
2023-11-27T13:08:26.195Z,100222.38
2023-11-27T13:10:53.060Z,100215.59
2023-11-27T13:13:22.562Z,100212.97
2023-11-27T13:15:49.617Z,100211.19
2023-11-27T13:18:19.179Z,100215.59
2023-11-27T13:20:50.002Z,100198.19
2023-11-27T13:23:17.203Z,100211.22
2023-11-27T13:25:45.244Z,100213.75
2023-11-27T13:28:18.405Z,100213.72
2023-11-27T13:30:46.282Z,100213.75
2023-11-27T13:33:12.883Z,100207.63
2023-11-27T13:35:41.781Z,100211.84
2023-11-27T13:38:16.311Z,100206.59
2023-11-27T13:40:47.806Z,100205.75
2023-11-27T13:43:15.308Z,100202.31
2023-11-27T13:45:42.686Z,100202.28
2023-11-27T13:48:15.174Z,100191.78
2023-11-27T13:50:42.148Z,100190.09
2023-11-27T13:53:09.179Z,100185.69
2023-11-27T13:55:38.383Z,100182.94
2023-11-27T13:58:10.297Z,100189.03
2023-11-27T14:00:44.694Z,100181.09
2023-11-27T14:03:12.687Z,100185.47
2023-11-27T14:05:39.739Z,100187.16
2023-11-27T14:08:12.496Z,100175.84
2023-11-27T14:10:57.554Z,100182.69
2023-11-27T14:13:23.929Z,100180.88
2023-11-27T14:15:50.304Z,100179.16
2023-11-27T14:18:23.318Z,100173.91
2023-11-27T14:21:09.088Z,100172.16
2023-11-27T14:23:42.094Z,100171.22
2023-11-27T14:26:11.389Z,100171.97
2023-11-27T14:28:44.447Z,100169.34
2023-11-27T14:31:11.791Z,100161.41
2023-11-27T14:33:38.568Z,100163.06
2023-11-27T14:36:05.111Z,100158.66
2023-11-27T14:38:31.536Z,100156.84
2023-11-27T14:40:58.540Z,100158.53
2023-11-27T14:43:26.834Z,100154.06
2023-11-27T14:45:53.747Z,100143.50
2023-11-27T14:48:24.534Z,100153.94
2023-11-27T14:50:52.504Z,100151.31
2023-11-27T14:53:20.430Z,100150.34
2023-11-27T14:55:46.927Z,100150.25
2023-11-27T14:58:16.712Z,100149.28
2023-11-27T15:00:45.027Z,100150.97
2023-11-27T15:03:20.470Z,100149.09
2023-11-27T15:05:49.474Z,100144.69
2023-11-27T15:08:16.584Z,100142.94
2023-11-27T15:10:44.391Z,100143.75
2023-11-27T15:13:10.811Z,100142.06
2023-11-27T15:15:37.198Z,100145.41
2023-11-27T15:18:07.261Z,100133.16
2023-11-27T15:20:36.007Z,100134.91
2023-11-27T15:23:04.152Z,100134.06
2023-11-27T15:25:32.585Z,100132.34
2023-11-27T15:27:59.022Z,100128.84
2023-11-27T15:30:25.789Z,100138.31
2023-11-27T15:32:52.292Z,100130.56
2023-11-27T15:35:20.433Z,100130.56
2023-11-27T15:37:47.744Z,100123.50
2023-11-27T15:40:21.193Z,100138.25
2023-11-27T15:42:47.868Z,100126.06
2023-11-27T15:45:16.663Z,100133.03
2023-11-27T15:47:43.245Z,100134.72
2023-11-27T15:50:14.555Z,100132.00
2023-11-27T15:52:41.597Z,100130.13
2023-11-27T15:55:08.471Z,100130.06
2023-11-27T15:57:35.199Z,100126.56
2023-11-27T16:00:01.780Z,100127.31
2023-11-27T16:02:28.236Z,100125.63
2023-11-27T16:04:54.848Z,100132.66
2023-11-27T16:07:21.989Z,100129.22
2023-11-27T16:09:48.454Z,100121.28
2023-11-27T16:12:15.287Z,100122.13
2023-11-27T16:14:41.844Z,100120.31
2023-11-27T16:17:10.024Z,100118.63
2023-11-27T16:19:38.749Z,100118.53
2023-11-27T16:22:05.819Z,100116.88
2023-11-27T16:24:34.175Z,100117.59
2023-11-27T16:27:00.531Z,100113.22
2023-11-27T16:29:27.221Z,100104.56
2023-11-27T16:31:53.701Z,100107.16
2023-11-27T16:34:20.113Z,100104.56
2023-11-27T16:36:47.616Z,100101.97
2023-11-27T16:39:14.417Z,100103.75
2023-11-27T16:41:41.809Z,100101.91
2023-11-27T16:44:08.462Z,100099.28
2023-11-27T16:46:35.122Z,100100.94
2023-11-27T16:49:01.993Z,100099.09
2023-11-27T16:51:32.809Z,100092.13
2023-11-27T16:54:01.158Z,100091.25
2023-11-27T16:56:28.177Z,100093.00
2023-11-27T16:58:54.705Z,100088.63
2023-11-27T17:01:21.540Z,100093.78
2023-11-27T17:03:50.334Z,100089.50
2023-11-27T17:06:17.504Z,100093.94
2023-11-27T17:08:44.438Z,100084.28
2023-11-27T17:11:11.361Z,100086.03
2023-11-27T17:13:38.652Z,100082.53
2023-11-27T17:16:05.438Z,100083.38
2023-11-27T17:18:32.526Z,100088.63
2023-11-27T17:20:59.322Z,100090.28
2023-11-27T17:23:25.704Z,100086.84
2023-11-27T17:25:53.789Z,100091.00
2023-11-27T17:28:22.878Z,100098.06
2023-11-27T17:30:51.628Z,100093.66
2023-11-27T17:33:18.026Z,100092.75
2023-11-27T17:35:44.604Z,100087.47
2023-11-27T17:38:11.142Z,100090.00
2023-11-27T17:40:37.931Z,100086.63
2023-11-27T17:43:04.623Z,100083.97
2023-11-27T17:45:31.078Z,100085.63
2023-11-27T17:47:57.596Z,100087.25
2023-11-27T17:50:24.279Z,100076.84
2023-11-27T17:52:51.663Z,100083.69
2023-11-27T17:55:23.667Z,100086.28
2023-11-27T17:57:51.496Z,100089.69
2023-11-27T18:00:19.098Z,100084.38
2023-11-27T18:02:49.366Z,100093.00
2023-11-27T18:05:20.667Z,100092.09
2023-11-27T18:07:47.317Z,100089.38
2023-11-27T18:10:13.831Z,100091.03
2023-11-27T18:12:41.110Z,100083.13
2023-11-27T18:15:08.245Z,100083.22
2023-11-27T18:17:34.758Z,100082.25
2023-11-27T18:20:04.638Z,100080.53
2023-11-27T18:22:31.913Z,100080.41
2023-11-27T18:24:58.621Z,100077.81
2023-11-27T18:27:24.989Z,100076.13
2023-11-27T18:29:51.445Z,100073.50
2023-11-27T18:32:19.666Z,100072.66
2023-11-27T18:34:47.100Z,100082.19
2023-11-27T18:37:14.187Z,100075.19
2023-11-27T18:39:40.651Z,100080.34
2023-11-27T18:42:07.624Z,100079.53
2023-11-27T18:44:34.056Z,100075.19
2023-11-27T18:47:00.599Z,100072.59
2023-11-27T18:49:27.459Z,100081.19
2023-11-27T18:51:54.372Z,100070.75
2023-11-27T18:54:20.835Z,100069.00
2023-11-27T18:56:47.246Z,100072.50
2023-11-27T18:59:13.701Z,100069.88
2023-11-27T19:01:40.144Z,100069.13
2023-11-27T19:04:06.799Z,100071.69
2023-11-27T19:06:33.164Z,100069.09
2023-11-27T19:09:00.299Z,100067.34
2023-11-27T19:11:26.722Z,100066.44
2023-11-27T19:13:53.147Z,100070.66
2023-11-27T19:16:19.707Z,100063.72
2023-11-27T19:18:50.780Z,100066.25
2023-11-27T19:21:17.180Z,100070.66
2023-11-27T19:23:43.705Z,100067.19
2023-11-27T19:26:10.995Z,100064.66
2023-11-27T19:28:37.419Z,100063.84
2023-11-27T19:31:04.012Z,100063.84
2023-11-27T19:33:33.238Z,100057.00
2023-11-27T19:36:00.111Z,100050.06
2023-11-27T19:38:27.489Z,100046.75
2023-11-27T19:40:54.505Z,100039.03
2023-11-27T19:43:21.396Z,100041.63
2023-11-27T19:45:47.827Z,100037.09
2023-11-27T19:48:14.291Z,100035.31
2023-11-27T19:50:41.114Z,100034.50
2023-11-27T19:53:08.295Z,100044.06
2023-11-27T19:55:34.666Z,100035.63
2023-11-27T19:58:01.051Z,100034.16
2023-11-27T20:00:28.909Z,100026.41
2023-11-27T20:02:56.174Z,100035.88
2023-11-27T20:05:23.348Z,100030.53
2023-11-27T20:07:49.763Z,100026.22
2023-11-27T20:10:16.869Z,100031.28
2023-11-27T20:12:43.751Z,100028.69
2023-11-27T20:15:12.992Z,100027.66
2023-11-27T20:17:40.782Z,100034.41
2023-11-27T20:20:15.489Z,100027.47
2023-11-27T20:22:42.378Z,100033.66
2023-11-27T20:25:08.991Z,100040.88
2023-11-27T20:27:35.430Z,100037.63
2023-11-27T20:30:02.527Z,100038.72
2023-11-27T20:32:31.999Z,100025.19
2023-11-27T20:34:59.878Z,100031.63
2023-11-27T20:37:26.612Z,100030.28
2023-11-27T20:39:53.910Z,100032.28
2023-11-27T20:42:20.300Z,100020.28
2023-11-27T20:44:53.755Z,100021.19
2023-11-27T20:47:22.447Z,100025.47
2023-11-27T20:49:51.806Z,100019.50
2023-11-27T20:52:20.252Z,100017.75
2023-11-27T20:54:47.925Z,100025.50
2023-11-27T20:57:14.533Z,100026.31
2023-11-27T20:59:41.950Z,100025.41
2023-11-27T21:02:08.759Z,100024.28
2023-11-27T21:04:38.108Z,100019.91
2023-11-27T21:07:04.725Z,100022.63
2023-11-27T21:09:31.082Z,100029.66
2023-11-27T21:11:57.561Z,100024.34
2023-11-27T21:14:24.771Z,100029.69
2023-11-27T21:16:52.510Z,100033.00
2023-11-27T21:19:19.067Z,100031.22
2023-11-27T21:21:45.551Z,100016.28
2023-11-27T21:31:08.144Z,100031.22
2023-11-27T21:33:34.600Z,100035.41
2023-11-27T21:36:00.943Z,100035.25
2023-11-27T21:38:27.314Z,100026.41
2023-11-27T21:40:54.040Z,100021.13
2023-11-27T21:43:20.804Z,100006.59
2023-11-27T21:45:47.204Z,100018.72
2023-11-27T21:48:15.357Z,100006.66
2023-11-27T21:50:41.782Z,100006.59
2023-11-27T21:53:08.840Z,100003.50
2023-11-27T21:55:35.362Z,100020.75
2023-11-27T21:58:01.736Z,100012.03
2023-11-27T22:00:28.088Z,100014.75
2023-11-27T22:02:54.532Z,100012.94
2023-11-27T22:05:21.121Z,100018.19
2023-11-27T22:07:50.374Z,100011.38
2023-11-27T22:10:19.787Z,100018.56
2023-11-27T22:12:46.227Z,100015.84
2023-11-27T22:15:14.968Z,100015.81
2023-11-27T22:17:41.897Z,100016.00
2023-11-27T22:20:12.822Z,100013.41
2023-11-27T22:22:40.789Z,100016.81
2023-11-27T22:25:07.624Z,100012.34
2023-11-27T22:27:34.024Z,100003.69
2023-11-27T22:30:00.947Z,100008.00
2023-11-27T22:32:29.024Z,100013.97
2023-11-27T22:34:56.870Z,100003.56
2023-11-27T22:37:23.407Z,100011.44
2023-11-27T22:39:49.903Z,100006.16
2023-11-27T22:42:16.545Z,100013.16
2023-11-27T22:44:42.890Z,100007.28
2023-11-27T22:47:09.299Z,100002.84
2023-11-27T22:49:35.711Z,100010.72
2023-11-27T22:52:02.087Z,100009.84
2023-11-27T22:54:28.417Z,100002.78
2023-11-27T22:56:54.766Z,100003.56
2023-11-27T22:59:21.247Z,100009.59
2023-11-27T23:01:49.870Z,100005.31
2023-11-27T23:04:21.612Z,100007.72
2023-11-27T23:06:48.494Z,100007.63
2023-11-27T23:09:14.881Z,100001.41
2023-11-27T23:11:46.141Z,99999.56
2023-11-27T23:14:12.598Z,100003.78
2023-11-27T23:16:39.268Z,99986.50
2023-11-27T23:19:06.805Z,99988.22
2023-11-27T23:21:33.190Z,99989.06
2023-11-27T23:23:59.514Z,99998.72
2023-11-27T23:26:25.958Z,100002.31
2023-11-27T23:28:52.334Z,100005.06
2023-11-27T23:31:19.093Z,100008.66
2023-11-27T23:33:45.524Z,100010.53
2023-11-27T23:36:12.882Z,100013.25
2023-11-27T23:38:39.319Z,100016.81
2023-11-27T23:41:05.927Z,100020.41
2023-11-27T23:43:32.315Z,100016.09
2023-11-27T23:45:59.406Z,100016.16
2023-11-27T23:48:25.791Z,100006.72
2023-11-27T23:50:52.170Z,100012.75
2023-11-27T23:53:18.522Z,100013.63
2023-11-27T23:55:44.923Z,100005.09
2023-11-27T23:58:11.296Z,100022.59
